sensor_id;sensor_type;location;lat;lon;timestamp;P1;durP1;ratioP1;P2;durP2;ratioP2
61200;SDS011;47065;52.898;6.992;2024-02-26T00:00:36;31.58;;;20.75;;
61200;SDS011;47065;52.898;6.992;2024-02-26T00:03:05;35.13;;;21.05;;
61200;SDS011;47065;52.898;6.992;2024-02-26T00:05:33;32.63;;;20.85;;
61200;SDS011;47065;52.898;6.992;2024-02-26T00:07:58;36.70;;;22.40;;
61200;SDS011;47065;52.898;6.992;2024-02-26T00:10:24;37.78;;;22.60;;
61200;SDS011;47065;52.898;6.992;2024-02-26T00:12:53;35.50;;;23.23;;
61200;SDS011;47065;52.898;6.992;2024-02-26T00:15:18;32.50;;;21.30;;
61200;SDS011;47065;52.898;6.992;2024-02-26T00:17:44;35.80;;;22.13;;
61200;SDS011;47065;52.898;6.992;2024-02-26T00:20:10;42.13;;;27.67;;
61200;SDS011;47065;52.898;6.992;2024-02-26T00:22:36;46.78;;;31.38;;
61200;SDS011;47065;52.898;6.992;2024-02-26T00:25:02;47.30;;;29.83;;
61200;SDS011;47065;52.898;6.992;2024-02-26T00:27:29;39.60;;;26.25;;
61200;SDS011;47065;52.898;6.992;2024-02-26T00:29:54;40.88;;;27.02;;
61200;SDS011;47065;52.898;6.992;2024-02-26T00:32:20;41.10;;;25.88;;
61200;SDS011;47065;52.898;6.992;2024-02-26T00:34:46;32.70;;;21.08;;
61200;SDS011;47065;52.898;6.992;2024-02-26T00:37:11;32.03;;;19.77;;
61200;SDS011;47065;52.898;6.992;2024-02-26T00:39:37;24.67;;;17.58;;
61200;SDS011;47065;52.898;6.992;2024-02-26T00:42:03;27.05;;;16.25;;
61200;SDS011;47065;52.898;6.992;2024-02-26T00:44:29;22.77;;;14.65;;
61200;SDS011;47065;52.898;6.992;2024-02-26T00:46:54;28.08;;;15.32;;
61200;SDS011;47065;52.898;6.992;2024-02-26T00:49:20;26.05;;;16.45;;
61200;SDS011;47065;52.898;6.992;2024-02-26T00:51:46;28.30;;;15.88;;
61200;SDS011;47065;52.898;6.992;2024-02-26T00:54:11;24.52;;;14.77;;
61200;SDS011;47065;52.898;6.992;2024-02-26T00:56:37;26.10;;;15.30;;
61200;SDS011;47065;52.898;6.992;2024-02-26T00:59:03;28.65;;;16.60;;
61200;SDS011;47065;52.898;6.992;2024-02-26T01:01:28;26.65;;;17.10;;
61200;SDS011;47065;52.898;6.992;2024-02-26T01:03:54;27.92;;;16.38;;
61200;SDS011;47065;52.898;6.992;2024-02-26T01:06:20;28.70;;;16.30;;
61200;SDS011;47065;52.898;6.992;2024-02-26T01:08:47;27.88;;;16.90;;
61200;SDS011;47065;52.898;6.992;2024-02-26T01:11:12;30.30;;;17.20;;
61200;SDS011;47065;52.898;6.992;2024-02-26T01:13:38;33.42;;;18.23;;
61200;SDS011;47065;52.898;6.992;2024-02-26T01:16:04;29.45;;;17.48;;
61200;SDS011;47065;52.898;6.992;2024-02-26T01:18:30;31.00;;;19.60;;
61200;SDS011;47065;52.898;6.992;2024-02-26T01:20:56;31.48;;;18.77;;
61200;SDS011;47065;52.898;6.992;2024-02-26T01:23:21;32.20;;;19.83;;
61200;SDS011;47065;52.898;6.992;2024-02-26T01:25:47;30.15;;;18.80;;
61200;SDS011;47065;52.898;6.992;2024-02-26T01:28:13;29.90;;;19.23;;
61200;SDS011;47065;52.898;6.992;2024-02-26T01:30:39;31.67;;;17.30;;
61200;SDS011;47065;52.898;6.992;2024-02-26T01:33:05;37.55;;;19.40;;
61200;SDS011;47065;52.898;6.992;2024-02-26T01:35:32;31.65;;;17.52;;
61200;SDS011;47065;52.898;6.992;2024-02-26T01:37:57;32.85;;;18.23;;
61200;SDS011;47065;52.898;6.992;2024-02-26T01:40:26;34.33;;;18.35;;
61200;SDS011;47065;52.898;6.992;2024-02-26T01:42:52;32.42;;;18.48;;
61200;SDS011;47065;52.898;6.992;2024-02-26T01:45:18;34.17;;;17.65;;
61200;SDS011;47065;52.898;6.992;2024-02-26T01:47:49;30.90;;;18.10;;
61200;SDS011;47065;52.898;6.992;2024-02-26T01:50:16;34.95;;;18.00;;
61200;SDS011;47065;52.898;6.992;2024-02-26T01:52:44;34.45;;;18.83;;
61200;SDS011;47065;52.898;6.992;2024-02-26T01:55:13;41.85;;;20.35;;
61200;SDS011;47065;52.898;6.992;2024-02-26T01:57:40;39.03;;;21.08;;
61200;SDS011;47065;52.898;6.992;2024-02-26T02:00:07;37.78;;;19.92;;
61200;SDS011;47065;52.898;6.992;2024-02-26T02:02:33;43.25;;;21.40;;
61200;SDS011;47065;52.898;6.992;2024-02-26T02:05:00;37.83;;;20.13;;
61200;SDS011;47065;52.898;6.992;2024-02-26T02:07:28;41.38;;;19.95;;
61200;SDS011;47065;52.898;6.992;2024-02-26T02:09:55;45.03;;;20.63;;
61200;SDS011;47065;52.898;6.992;2024-02-26T02:12:21;44.40;;;22.40;;
61200;SDS011;47065;52.898;6.992;2024-02-26T02:14:47;46.30;;;20.25;;
61200;SDS011;47065;52.898;6.992;2024-02-26T02:17:13;52.15;;;23.20;;
61200;SDS011;47065;52.898;6.992;2024-02-26T02:19:38;51.88;;;23.17;;
61200;SDS011;47065;52.898;6.992;2024-02-26T02:22:04;51.83;;;24.35;;
61200;SDS011;47065;52.898;6.992;2024-02-26T02:24:30;61.00;;;26.58;;
61200;SDS011;47065;52.898;6.992;2024-02-26T02:26:55;58.08;;;25.40;;
61200;SDS011;47065;52.898;6.992;2024-02-26T02:29:21;54.20;;;24.55;;
61200;SDS011;47065;52.898;6.992;2024-02-26T02:31:47;59.55;;;24.33;;
61200;SDS011;47065;52.898;6.992;2024-02-26T02:34:13;63.20;;;25.30;;
61200;SDS011;47065;52.898;6.992;2024-02-26T02:36:50;56.17;;;23.92;;
61200;SDS011;47065;52.898;6.992;2024-02-26T02:39:17;56.67;;;25.10;;
61200;SDS011;47065;52.898;6.992;2024-02-26T02:41:43;66.28;;;26.63;;
61200;SDS011;47065;52.898;6.992;2024-02-26T02:44:09;53.83;;;24.52;;
61200;SDS011;47065;52.898;6.992;2024-02-26T02:46:34;54.50;;;24.05;;
61200;SDS011;47065;52.898;6.992;2024-02-26T02:49:00;64.22;;;26.85;;
61200;SDS011;47065;52.898;6.992;2024-02-26T02:51:26;64.05;;;27.10;;
61200;SDS011;47065;52.898;6.992;2024-02-26T02:53:52;73.03;;;26.85;;
61200;SDS011;47065;52.898;6.992;2024-02-26T02:56:18;55.22;;;27.27;;
61200;SDS011;47065;52.898;6.992;2024-02-26T02:58:44;72.43;;;29.63;;
61200;SDS011;47065;52.898;6.992;2024-02-26T03:01:10;71.15;;;30.90;;
61200;SDS011;47065;52.898;6.992;2024-02-26T03:03:36;72.38;;;30.23;;
61200;SDS011;47065;52.898;6.992;2024-02-26T03:06:02;77.05;;;31.48;;
61200;SDS011;47065;52.898;6.992;2024-02-26T03:08:28;83.97;;;32.88;;
61200;SDS011;47065;52.898;6.992;2024-02-26T03:10:54;101.10;;;36.88;;
61200;SDS011;47065;52.898;6.992;2024-02-26T03:13:20;112.50;;;38.85;;
61200;SDS011;47065;52.898;6.992;2024-02-26T03:15:46;117.47;;;40.75;;
61200;SDS011;47065;52.898;6.992;2024-02-26T03:18:11;128.93;;;40.55;;
61200;SDS011;47065;52.898;6.992;2024-02-26T03:20:37;118.07;;;42.78;;
61200;SDS011;47065;52.898;6.992;2024-02-26T03:23:03;129.50;;;44.80;;
61200;SDS011;47065;52.898;6.992;2024-02-26T03:25:29;134.60;;;44.10;;
61200;SDS011;47065;52.898;6.992;2024-02-26T03:27:55;142.45;;;46.25;;
61200;SDS011;47065;52.898;6.992;2024-02-26T03:30:20;131.10;;;43.60;;
61200;SDS011;47065;52.898;6.992;2024-02-26T03:32:46;126.35;;;46.72;;
61200;SDS011;47065;52.898;6.992;2024-02-26T03:35:12;133.70;;;44.20;;
61200;SDS011;47065;52.898;6.992;2024-02-26T03:37:38;124.45;;;45.38;;
61200;SDS011;47065;52.898;6.992;2024-02-26T03:40:05;125.50;;;45.22;;
61200;SDS011;47065;52.898;6.992;2024-02-26T03:42:31;133.90;;;45.00;;
61200;SDS011;47065;52.898;6.992;2024-02-26T03:44:56;146.02;;;44.75;;
61200;SDS011;47065;52.898;6.992;2024-02-26T03:47:22;139.35;;;46.97;;
61200;SDS011;47065;52.898;6.992;2024-02-26T03:49:48;131.98;;;44.05;;
61200;SDS011;47065;52.898;6.992;2024-02-26T03:52:14;122.55;;;42.95;;
61200;SDS011;47065;52.898;6.992;2024-02-26T03:54:42;120.45;;;42.47;;
61200;SDS011;47065;52.898;6.992;2024-02-26T03:57:08;128.80;;;44.08;;
61200;SDS011;47065;52.898;6.992;2024-02-26T03:59:34;117.75;;;41.95;;
61200;SDS011;47065;52.898;6.992;2024-02-26T04:01:59;116.18;;;39.72;;
61200;SDS011;47065;52.898;6.992;2024-02-26T04:04:29;125.22;;;42.72;;
61200;SDS011;47065;52.898;6.992;2024-02-26T04:06:58;124.63;;;41.75;;
61200;SDS011;47065;52.898;6.992;2024-02-26T04:09:24;115.57;;;36.63;;
61200;SDS011;47065;52.898;6.992;2024-02-26T04:11:50;108.95;;;39.08;;
61200;SDS011;47065;52.898;6.992;2024-02-26T04:14:16;111.30;;;39.10;;
61200;SDS011;47065;52.898;6.992;2024-02-26T04:16:41;112.65;;;36.67;;
61200;SDS011;47065;52.898;6.992;2024-02-26T04:19:07;91.50;;;30.80;;
61200;SDS011;47065;52.898;6.992;2024-02-26T04:21:33;87.90;;;30.65;;
61200;SDS011;47065;52.898;6.992;2024-02-26T04:23:59;88.95;;;32.72;;
61200;SDS011;47065;52.898;6.992;2024-02-26T04:26:26;86.32;;;30.90;;
61200;SDS011;47065;52.898;6.992;2024-02-26T04:28:56;73.43;;;29.73;;
61200;SDS011;47065;52.898;6.992;2024-02-26T04:31:22;88.40;;;32.38;;
61200;SDS011;47065;52.898;6.992;2024-02-26T04:33:47;73.88;;;27.90;;
61200;SDS011;47065;52.898;6.992;2024-02-26T04:36:13;69.22;;;28.48;;
61200;SDS011;47065;52.898;6.992;2024-02-26T04:38:45;64.70;;;26.85;;
61200;SDS011;47065;52.898;6.992;2024-02-26T04:41:10;67.28;;;24.85;;
61200;SDS011;47065;52.898;6.992;2024-02-26T04:43:37;60.65;;;24.25;;
61200;SDS011;47065;52.898;6.992;2024-02-26T04:46:07;66.38;;;28.42;;
61200;SDS011;47065;52.898;6.992;2024-02-26T04:48:33;69.13;;;26.42;;
61200;SDS011;47065;52.898;6.992;2024-02-26T04:51:00;58.35;;;25.65;;
61200;SDS011;47065;52.898;6.992;2024-02-26T04:53:28;64.53;;;25.25;;
61200;SDS011;47065;52.898;6.992;2024-02-26T04:55:54;57.35;;;26.60;;
61200;SDS011;47065;52.898;6.992;2024-02-26T04:58:20;57.15;;;25.15;;
61200;SDS011;47065;52.898;6.992;2024-02-26T05:00:45;59.65;;;25.00;;
61200;SDS011;47065;52.898;6.992;2024-02-26T05:03:14;55.05;;;24.58;;
61200;SDS011;47065;52.898;6.992;2024-02-26T05:05:41;55.45;;;23.92;;
61200;SDS011;47065;52.898;6.992;2024-02-26T05:08:09;55.38;;;25.58;;
61200;SDS011;47065;52.898;6.992;2024-02-26T05:10:36;51.78;;;22.40;;
61200;SDS011;47065;52.898;6.992;2024-02-26T05:13:05;43.13;;;20.73;;
61200;SDS011;47065;52.898;6.992;2024-02-26T05:15:31;40.08;;;20.30;;
61200;SDS011;47065;52.898;6.992;2024-02-26T05:17:57;39.03;;;19.00;;
61200;SDS011;47065;52.898;6.992;2024-02-26T05:20:23;32.80;;;16.48;;
61200;SDS011;47065;52.898;6.992;2024-02-26T05:22:49;32.17;;;16.10;;
61200;SDS011;47065;52.898;6.992;2024-02-26T05:25:15;29.35;;;15.65;;
61200;SDS011;47065;52.898;6.992;2024-02-26T05:27:42;31.13;;;15.15;;
61200;SDS011;47065;52.898;6.992;2024-02-26T05:30:09;30.80;;;14.73;;
61200;SDS011;47065;52.898;6.992;2024-02-26T05:32:35;32.17;;;14.90;;
61200;SDS011;47065;52.898;6.992;2024-02-26T05:35:01;32.17;;;16.02;;
61200;SDS011;47065;52.898;6.992;2024-02-26T05:37:28;24.23;;;13.15;;
61200;SDS011;47065;52.898;6.992;2024-02-26T05:39:54;31.73;;;13.60;;
61200;SDS011;47065;52.898;6.992;2024-02-26T05:42:20;30.23;;;15.07;;
61200;SDS011;47065;52.898;6.992;2024-02-26T05:44:46;29.90;;;14.68;;
61200;SDS011;47065;52.898;6.992;2024-02-26T05:47:12;25.42;;;14.00;;
61200;SDS011;47065;52.898;6.992;2024-02-26T05:49:38;21.10;;;12.05;;
61200;SDS011;47065;52.898;6.992;2024-02-26T05:52:04;25.15;;;13.32;;
61200;SDS011;47065;52.898;6.992;2024-02-26T05:54:31;22.60;;;12.27;;
61200;SDS011;47065;52.898;6.992;2024-02-26T05:56:57;23.38;;;13.13;;
61200;SDS011;47065;52.898;6.992;2024-02-26T05:59:23;25.83;;;13.10;;
61200;SDS011;47065;52.898;6.992;2024-02-26T06:01:49;21.20;;;12.32;;
61200;SDS011;47065;52.898;6.992;2024-02-26T06:04:14;22.33;;;12.68;;
61200;SDS011;47065;52.898;6.992;2024-02-26T06:06:42;22.48;;;12.63;;
61200;SDS011;47065;52.898;6.992;2024-02-26T06:09:09;21.70;;;12.30;;
61200;SDS011;47065;52.898;6.992;2024-02-26T06:11:36;25.48;;;13.00;;
61200;SDS011;47065;52.898;6.992;2024-02-26T06:14:02;25.15;;;11.95;;
61200;SDS011;47065;52.898;6.992;2024-02-26T06:16:27;19.70;;;11.50;;
61200;SDS011;47065;52.898;6.992;2024-02-26T06:18:53;16.55;;;9.27;;
61200;SDS011;47065;52.898;6.992;2024-02-26T06:21:19;20.20;;;11.75;;
61200;SDS011;47065;52.898;6.992;2024-02-26T06:23:44;21.10;;;11.35;;
61200;SDS011;47065;52.898;6.992;2024-02-26T06:26:17;22.30;;;11.48;;
61200;SDS011;47065;52.898;6.992;2024-02-26T06:28:43;21.50;;;11.80;;
61200;SDS011;47065;52.898;6.992;2024-02-26T06:31:09;19.80;;;10.48;;
61200;SDS011;47065;52.898;6.992;2024-02-26T06:33:37;22.02;;;13.05;;
61200;SDS011;47065;52.898;6.992;2024-02-26T06:36:03;22.77;;;10.25;;
61200;SDS011;47065;52.898;6.992;2024-02-26T06:38:29;16.98;;;10.60;;
61200;SDS011;47065;52.898;6.992;2024-02-26T06:40:55;20.35;;;9.55;;
61200;SDS011;47065;52.898;6.992;2024-02-26T06:43:21;16.23;;;9.40;;
61200;SDS011;47065;52.898;6.992;2024-02-26T06:45:47;18.00;;;10.05;;
61200;SDS011;47065;52.898;6.992;2024-02-26T06:48:13;16.27;;;9.65;;
61200;SDS011;47065;52.898;6.992;2024-02-26T06:50:39;20.05;;;10.63;;
61200;SDS011;47065;52.898;6.992;2024-02-26T06:53:04;16.65;;;7.85;;
61200;SDS011;47065;52.898;6.992;2024-02-26T06:55:32;15.20;;;8.50;;
61200;SDS011;47065;52.898;6.992;2024-02-26T06:57:58;13.85;;;8.55;;
61200;SDS011;47065;52.898;6.992;2024-02-26T07:00:23;16.65;;;8.75;;
61200;SDS011;47065;52.898;6.992;2024-02-26T07:02:49;13.63;;;8.10;;
61200;SDS011;47065;52.898;6.992;2024-02-26T07:05:14;14.75;;;8.02;;
61200;SDS011;47065;52.898;6.992;2024-02-26T07:07:40;12.27;;;7.78;;
61200;SDS011;47065;52.898;6.992;2024-02-26T07:10:06;13.25;;;7.22;;
61200;SDS011;47065;52.898;6.992;2024-02-26T07:12:32;10.65;;;6.72;;
61200;SDS011;47065;52.898;6.992;2024-02-26T07:14:58;11.93;;;7.75;;
61200;SDS011;47065;52.898;6.992;2024-02-26T07:17:27;14.10;;;6.95;;
61200;SDS011;47065;52.898;6.992;2024-02-26T07:19:53;13.35;;;7.65;;
61200;SDS011;47065;52.898;6.992;2024-02-26T07:22:19;9.95;;;6.85;;
61200;SDS011;47065;52.898;6.992;2024-02-26T07:24:44;11.65;;;7.10;;
61200;SDS011;47065;52.898;6.992;2024-02-26T07:27:10;12.90;;;8.18;;
61200;SDS011;47065;52.898;6.992;2024-02-26T07:29:36;13.23;;;7.82;;
61200;SDS011;47065;52.898;6.992;2024-02-26T07:32:02;11.50;;;7.28;;
61200;SDS011;47065;52.898;6.992;2024-02-26T07:34:28;11.57;;;7.82;;
61200;SDS011;47065;52.898;6.992;2024-02-26T07:36:57;13.18;;;7.25;;
61200;SDS011;47065;52.898;6.992;2024-02-26T07:39:23;10.77;;;6.93;;
61200;SDS011;47065;52.898;6.992;2024-02-26T07:41:48;12.05;;;7.00;;
61200;SDS011;47065;52.898;6.992;2024-02-26T07:44:16;10.27;;;6.13;;
61200;SDS011;47065;52.898;6.992;2024-02-26T07:46:42;9.35;;;6.93;;
61200;SDS011;47065;52.898;6.992;2024-02-26T07:49:08;11.35;;;7.18;;
61200;SDS011;47065;52.898;6.992;2024-02-26T07:51:33;10.80;;;6.85;;
61200;SDS011;47065;52.898;6.992;2024-02-26T07:54:00;9.63;;;5.97;;
61200;SDS011;47065;52.898;6.992;2024-02-26T07:56:28;9.10;;;6.30;;
61200;SDS011;47065;52.898;6.992;2024-02-26T07:58:54;11.45;;;6.20;;
61200;SDS011;47065;52.898;6.992;2024-02-26T08:01:19;10.98;;;6.75;;
61200;SDS011;47065;52.898;6.992;2024-02-26T08:03:45;8.90;;;6.03;;
61200;SDS011;47065;52.898;6.992;2024-02-26T08:06:11;8.30;;;6.25;;
61200;SDS011;47065;52.898;6.992;2024-02-26T08:08:36;9.48;;;6.00;;
61200;SDS011;47065;52.898;6.992;2024-02-26T08:11:02;9.80;;;5.85;;
61200;SDS011;47065;52.898;6.992;2024-02-26T08:13:28;10.00;;;6.72;;
61200;SDS011;47065;52.898;6.992;2024-02-26T08:15:54;9.02;;;6.45;;
61200;SDS011;47065;52.898;6.992;2024-02-26T08:18:20;10.35;;;6.35;;
61200;SDS011;47065;52.898;6.992;2024-02-26T08:20:45;9.57;;;6.05;;
61200;SDS011;47065;52.898;6.992;2024-02-26T08:23:13;10.73;;;6.60;;
61200;SDS011;47065;52.898;6.992;2024-02-26T08:25:39;8.18;;;5.90;;
61200;SDS011;47065;52.898;6.992;2024-02-26T08:28:04;11.25;;;5.90;;
61200;SDS011;47065;52.898;6.992;2024-02-26T08:30:30;8.27;;;6.05;;
61200;SDS011;47065;52.898;6.992;2024-02-26T08:32:56;10.30;;;6.05;;
61200;SDS011;47065;52.898;6.992;2024-02-26T08:35:21;9.30;;;6.45;;
61200;SDS011;47065;52.898;6.992;2024-02-26T08:37:47;10.40;;;6.00;;
61200;SDS011;47065;52.898;6.992;2024-02-26T08:40:13;8.25;;;6.38;;
61200;SDS011;47065;52.898;6.992;2024-02-26T08:42:39;8.07;;;5.65;;
61200;SDS011;47065;52.898;6.992;2024-02-26T08:45:05;8.98;;;5.47;;
61200;SDS011;47065;52.898;6.992;2024-02-26T08:47:32;7.43;;;5.18;;
61200;SDS011;47065;52.898;6.992;2024-02-26T08:49:57;10.75;;;5.85;;
61200;SDS011;47065;52.898;6.992;2024-02-26T08:52:23;7.78;;;5.63;;
61200;SDS011;47065;52.898;6.992;2024-02-26T08:54:49;7.22;;;5.78;;
61200;SDS011;47065;52.898;6.992;2024-02-26T08:57:15;8.00;;;5.35;;
61200;SDS011;47065;52.898;6.992;2024-02-26T08:59:41;10.88;;;6.05;;
61200;SDS011;47065;52.898;6.992;2024-02-26T09:02:07;7.35;;;5.38;;
61200;SDS011;47065;52.898;6.992;2024-02-26T09:04:34;9.77;;;5.70;;
61200;SDS011;47065;52.898;6.992;2024-02-26T09:07:02;8.55;;;5.65;;
61200;SDS011;47065;52.898;6.992;2024-02-26T09:09:28;9.27;;;6.20;;
61200;SDS011;47065;52.898;6.992;2024-02-26T09:11:54;8.63;;;6.05;;
61200;SDS011;47065;52.898;6.992;2024-02-26T09:14:20;8.13;;;5.55;;
61200;SDS011;47065;52.898;6.992;2024-02-26T09:16:46;7.78;;;5.30;;
61200;SDS011;47065;52.898;6.992;2024-02-26T09:19:16;9.30;;;5.70;;
61200;SDS011;47065;52.898;6.992;2024-02-26T09:21:42;8.73;;;5.95;;
61200;SDS011;47065;52.898;6.992;2024-02-26T09:24:09;6.68;;;5.30;;
61200;SDS011;47065;52.898;6.992;2024-02-26T09:26:36;8.55;;;5.80;;
61200;SDS011;47065;52.898;6.992;2024-02-26T09:29:02;7.15;;;5.20;;
61200;SDS011;47065;52.898;6.992;2024-02-26T09:31:29;8.05;;;5.78;;
61200;SDS011;47065;52.898;6.992;2024-02-26T09:33:55;9.40;;;6.18;;
61200;SDS011;47065;52.898;6.992;2024-02-26T09:36:20;7.78;;;5.28;;
61200;SDS011;47065;52.898;6.992;2024-02-26T09:38:47;7.18;;;5.30;;
61200;SDS011;47065;52.898;6.992;2024-02-26T09:41:16;9.85;;;5.32;;
61200;SDS011;47065;52.898;6.992;2024-02-26T09:43:43;10.77;;;5.80;;
61200;SDS011;47065;52.898;6.992;2024-02-26T09:46:13;8.20;;;6.40;;
61200;SDS011;47065;52.898;6.992;2024-02-26T09:48:40;9.10;;;6.18;;
61200;SDS011;47065;52.898;6.992;2024-02-26T09:51:09;8.45;;;5.95;;
61200;SDS011;47065;52.898;6.992;2024-02-26T09:53:36;9.55;;;5.75;;
61200;SDS011;47065;52.898;6.992;2024-02-26T09:56:07;9.73;;;6.18;;
61200;SDS011;47065;52.898;6.992;2024-02-26T09:58:33;7.97;;;5.25;;
61200;SDS011;47065;52.898;6.992;2024-02-26T10:01:00;9.38;;;6.15;;
61200;SDS011;47065;52.898;6.992;2024-02-26T10:03:30;9.80;;;6.40;;
61200;SDS011;47065;52.898;6.992;2024-02-26T10:06:02;8.80;;;6.07;;
61200;SDS011;47065;52.898;6.992;2024-02-26T10:08:31;10.27;;;5.85;;
61200;SDS011;47065;52.898;6.992;2024-02-26T10:10:57;7.65;;;5.63;;
61200;SDS011;47065;52.898;6.992;2024-02-26T10:13:23;8.43;;;6.32;;
61200;SDS011;47065;52.898;6.992;2024-02-26T10:15:48;8.10;;;5.72;;
61200;SDS011;47065;52.898;6.992;2024-02-26T10:18:14;7.63;;;5.72;;
61200;SDS011;47065;52.898;6.992;2024-02-26T10:20:40;8.70;;;6.43;;
61200;SDS011;47065;52.898;6.992;2024-02-26T10:23:06;8.65;;;6.70;;
61200;SDS011;47065;52.898;6.992;2024-02-26T10:25:31;10.80;;;6.43;;
61200;SDS011;47065;52.898;6.992;2024-02-26T10:28:01;8.00;;;6.03;;
61200;SDS011;47065;52.898;6.992;2024-02-26T10:30:27;8.38;;;6.05;;
61200;SDS011;47065;52.898;6.992;2024-02-26T10:32:53;7.50;;;5.55;;
61200;SDS011;47065;52.898;6.992;2024-02-26T10:35:19;9.73;;;6.70;;
61200;SDS011;47065;52.898;6.992;2024-02-26T10:37:46;9.82;;;6.25;;
61200;SDS011;47065;52.898;6.992;2024-02-26T10:40:15;7.95;;;6.05;;
61200;SDS011;47065;52.898;6.992;2024-02-26T10:42:43;9.82;;;6.88;;
61200;SDS011;47065;52.898;6.992;2024-02-26T10:45:12;9.40;;;6.47;;
61200;SDS011;47065;52.898;6.992;2024-02-26T10:47:38;10.95;;;6.80;;
61200;SDS011;47065;52.898;6.992;2024-02-26T10:50:05;7.05;;;5.47;;
61200;SDS011;47065;52.898;6.992;2024-02-26T10:52:32;8.20;;;5.55;;
61200;SDS011;47065;52.898;6.992;2024-02-26T10:55:05;9.20;;;6.15;;
61200;SDS011;47065;52.898;6.992;2024-02-26T10:57:38;9.82;;;6.05;;
61200;SDS011;47065;52.898;6.992;2024-02-26T11:00:05;8.65;;;6.18;;
61200;SDS011;47065;52.898;6.992;2024-02-26T11:02:34;9.35;;;6.22;;
61200;SDS011;47065;52.898;6.992;2024-02-26T11:05:04;9.38;;;6.47;;
61200;SDS011;47065;52.898;6.992;2024-02-26T11:07:32;10.70;;;6.82;;
61200;SDS011;47065;52.898;6.992;2024-02-26T11:10:03;8.77;;;5.70;;
61200;SDS011;47065;52.898;6.992;2024-02-26T11:12:31;10.57;;;6.60;;
61200;SDS011;47065;52.898;6.992;2024-02-26T11:14:57;10.90;;;7.32;;
61200;SDS011;47065;52.898;6.992;2024-02-26T11:17:26;10.27;;;6.75;;
61200;SDS011;47065;52.898;6.992;2024-02-26T11:19:56;9.65;;;6.50;;
61200;SDS011;47065;52.898;6.992;2024-02-26T11:22:26;11.20;;;7.32;;
61200;SDS011;47065;52.898;6.992;2024-02-26T11:24:53;10.77;;;7.40;;
61200;SDS011;47065;52.898;6.992;2024-02-26T11:27:28;12.25;;;7.55;;
61200;SDS011;47065;52.898;6.992;2024-02-26T11:29:58;12.88;;;8.05;;
61200;SDS011;47065;52.898;6.992;2024-02-26T11:32:26;11.85;;;6.50;;
61200;SDS011;47065;52.898;6.992;2024-02-26T11:34:55;9.80;;;6.75;;
61200;SDS011;47065;52.898;6.992;2024-02-26T11:37:21;10.07;;;7.18;;
61200;SDS011;47065;52.898;6.992;2024-02-26T11:39:47;11.07;;;7.75;;
61200;SDS011;47065;52.898;6.992;2024-02-26T11:42:16;9.80;;;7.22;;
61200;SDS011;47065;52.898;6.992;2024-02-26T11:44:42;9.75;;;6.72;;
61200;SDS011;47065;52.898;6.992;2024-02-26T11:47:11;13.93;;;8.48;;
61200;SDS011;47065;52.898;6.992;2024-02-26T11:49:44;11.75;;;7.03;;
61200;SDS011;47065;52.898;6.992;2024-02-26T11:52:10;9.90;;;6.45;;
61200;SDS011;47065;52.898;6.992;2024-02-26T11:57:24;10.13;;;8.35;;
61200;SDS011;47065;52.898;6.992;2024-02-26T12:05:09;9.48;;;6.47;;
61200;SDS011;47065;52.898;6.992;2024-02-26T12:07:47;8.95;;;6.22;;
61200;SDS011;47065;52.898;6.992;2024-02-26T12:10:15;7.38;;;6.07;;
61200;SDS011;47065;52.898;6.992;2024-02-26T12:13:33;7.28;;;5.50;;
61200;SDS011;47065;52.898;6.992;2024-02-26T12:15:43;9.30;;;5.78;;
61200;SDS011;47065;52.898;6.992;2024-02-26T12:18:10;10.07;;;6.65;;
61200;SDS011;47065;52.898;6.992;2024-02-26T12:20:42;11.02;;;6.90;;
61200;SDS011;47065;52.898;6.992;2024-02-26T12:23:09;9.32;;;6.07;;
61200;SDS011;47065;52.898;6.992;2024-02-26T12:25:43;8.53;;;5.80;;
61200;SDS011;47065;52.898;6.992;2024-02-26T12:28:09;11.45;;;7.32;;
61200;SDS011;47065;52.898;6.992;2024-02-26T12:30:35;11.32;;;7.22;;
61200;SDS011;47065;52.898;6.992;2024-02-26T12:33:03;9.60;;;6.35;;
61200;SDS011;47065;52.898;6.992;2024-02-26T12:35:29;8.60;;;6.18;;
61200;SDS011;47065;52.898;6.992;2024-02-26T12:37:57;11.45;;;6.30;;
61200;SDS011;47065;52.898;6.992;2024-02-26T12:40:23;9.93;;;6.80;;
61200;SDS011;47065;52.898;6.992;2024-02-26T12:42:49;9.23;;;6.18;;
61200;SDS011;47065;52.898;6.992;2024-02-26T12:45:15;7.75;;;5.10;;
61200;SDS011;47065;52.898;6.992;2024-02-26T12:47:44;9.20;;;6.22;;
61200;SDS011;47065;52.898;6.992;2024-02-26T12:50:15;8.23;;;5.93;;
61200;SDS011;47065;52.898;6.992;2024-02-26T12:52:42;8.20;;;5.45;;
61200;SDS011;47065;52.898;6.992;2024-02-26T12:55:10;8.13;;;5.82;;
61200;SDS011;47065;52.898;6.992;2024-02-26T12:57:40;7.93;;;5.10;;
61200;SDS011;47065;52.898;6.992;2024-02-26T13:00:08;7.40;;;5.22;;
61200;SDS011;47065;52.898;6.992;2024-02-26T13:02:38;8.57;;;6.13;;
61200;SDS011;47065;52.898;6.992;2024-02-26T13:05:05;9.20;;;5.70;;
61200;SDS011;47065;52.898;6.992;2024-02-26T13:07:33;8.18;;;6.03;;
61200;SDS011;47065;52.898;6.992;2024-02-26T13:09:59;10.95;;;5.55;;
61200;SDS011;47065;52.898;6.992;2024-02-26T13:12:28;9.50;;;5.72;;
61200;SDS011;47065;52.898;6.992;2024-02-26T13:15:03;9.07;;;5.95;;
61200;SDS011;47065;52.898;6.992;2024-02-26T13:19:58;8.73;;;5.35;;
61200;SDS011;47065;52.898;6.992;2024-02-26T13:22:23;8.10;;;5.88;;
61200;SDS011;47065;52.898;6.992;2024-02-26T13:24:53;10.13;;;6.70;;
61200;SDS011;47065;52.898;6.992;2024-02-26T13:27:21;11.88;;;5.80;;
61200;SDS011;47065;52.898;6.992;2024-02-26T13:30:12;9.45;;;6.60;;
61200;SDS011;47065;52.898;6.992;2024-02-26T13:32:40;10.77;;;6.78;;
61200;SDS011;47065;52.898;6.992;2024-02-26T13:35:10;7.63;;;6.03;;
61200;SDS011;47065;52.898;6.992;2024-02-26T13:37:37;8.90;;;5.93;;
61200;SDS011;47065;52.898;6.992;2024-02-26T13:40:07;8.98;;;6.68;;
61200;SDS011;47065;52.898;6.992;2024-02-26T13:42:36;9.90;;;6.95;;
61200;SDS011;47065;52.898;6.992;2024-02-26T13:45:03;11.50;;;7.32;;
61200;SDS011;47065;52.898;6.992;2024-02-26T13:47:33;11.18;;;6.55;;
61200;SDS011;47065;52.898;6.992;2024-02-26T13:49:59;11.90;;;7.50;;
61200;SDS011;47065;52.898;6.992;2024-02-26T13:52:29;10.32;;;6.82;;
61200;SDS011;47065;52.898;6.992;2024-02-26T13:54:59;11.07;;;7.65;;
61200;SDS011;47065;52.898;6.992;2024-02-26T13:57:24;9.43;;;7.55;;
61200;SDS011;47065;52.898;6.992;2024-02-26T13:59:50;12.70;;;8.07;;
61200;SDS011;47065;52.898;6.992;2024-02-26T14:02:16;10.30;;;8.05;;
61200;SDS011;47065;52.898;6.992;2024-02-26T14:04:42;12.93;;;8.25;;
61200;SDS011;47065;52.898;6.992;2024-02-26T14:07:08;11.38;;;8.45;;
61200;SDS011;47065;52.898;6.992;2024-02-26T14:09:35;10.25;;;7.95;;
61200;SDS011;47065;52.898;6.992;2024-02-26T14:12:00;12.32;;;8.93;;
61200;SDS011;47065;52.898;6.992;2024-02-26T14:14:27;13.57;;;10.10;;
61200;SDS011;47065;52.898;6.992;2024-02-26T14:16:53;14.30;;;9.45;;
61200;SDS011;47065;52.898;6.992;2024-02-26T14:19:19;13.43;;;9.15;;
61200;SDS011;47065;52.898;6.992;2024-02-26T14:21:44;12.77;;;9.13;;
61200;SDS011;47065;52.898;6.992;2024-02-26T14:24:10;12.93;;;9.30;;
61200;SDS011;47065;52.898;6.992;2024-02-26T14:26:35;14.02;;;9.35;;
61200;SDS011;47065;52.898;6.992;2024-02-26T14:29:01;12.48;;;8.00;;
61200;SDS011;47065;52.898;6.992;2024-02-26T14:31:27;12.40;;;9.15;;
61200;SDS011;47065;52.898;6.992;2024-02-26T14:33:53;13.32;;;8.93;;
61200;SDS011;47065;52.898;6.992;2024-02-26T14:36:19;14.00;;;9.85;;
61200;SDS011;47065;52.898;6.992;2024-02-26T14:38:46;13.20;;;8.98;;